KCBM/CBM METAR and TAF weather

Enter ICAO airport designator
Station Type Date Time Source
KCBM METAR 2022/07/03 13:56 UTC NOAA

KCBM 031356Z AUTO 00000KT 10SM CLR 27/23 A3007 RMK AO2 SLP183 T02690225 $


Station Type Date Time Source
KCBM Decoded METAR 2022/07/03 13:56 UTC NOAA

Columbus Air Force Base, MS, United States (KCBM) 33-39N 088-27W
Jul 03, 2022 - 09:56 AM EDT / 2022.07.03 1356 UTC
Wind: Calm:0
Visibility: 10 mile(s):0
Sky conditions: clear
Temperature: 80.4 F (26.9 C)
Dew Point: 72.5 F (22.5 C)
Relative Humidity: 76%
Pressure (altimeter): 30.07 in. Hg (1018 hPa)
ob: KCBM 031356Z AUTO 00000KT 10SM CLR 27/23 A3007 RMK AO2 SLP183 T02690225
cycle: 14

Station Type Date Time Source
KCBM TAF 2022/06/30 21:57 UTC NOAA

TAF TAF
AMD KCBM 302147Z 3021/0123 15009KT 9999 SCT022 QNH3003INS
TEMPO 3021/3023 VCTS BKN022CB
BECMG 3023/3024 15009KT 9999 BKN020 QNH3004INS
BECMG 0105/0106 15006KT 9999 BKN010 QNH3001INS
BECMG 0113/0114 17009KT 9999 SCT010 BKN050 QNH3001INS
BECMG 0117/0118 18009KT 9999 VCTS BKN025CB QNH2994INS TX33/3021Z TN23/0111Z LAST NO
AMDS AFT 3021 NEXT 0509

Example: see airport list